Lincoln, NE (68504)

12:13 AM CDT on September 02, 2014 (GMT -0500)
Wulf weather | Change Station
CLOSE
Current Station
Personal Weather Station
Location: Lincoln, NE
Elevation: 1243 ft
Nearby Weather Stations

Elev 1243 ft 40.85 °N, 96.63 °W | Updated 4 seconds ago

Clear
Clear
66.2 °F
Feels Like 66.2 °F
N
3.1
Wind Variable Wind from NW
Gusts 9.8 mph

Today
High -- | Low -- °F
--% Chance of Precip.
Yesterday
High -- | Low -- °F
Precip. -- in
6:54 AM 7:57 PM
Waxing Crescent, 47% visible
Pressure 29.95 in
Visibility 10.0 miles
Clouds Clear
Dew Point 64 °F
Humidity 91%
Rainfall 0.00 in
Snow Depth Not available.
UV 0 out of 12
Pollen 6.60 out of 12
Air Quality Not available.
Flu Activity Not available.
METAR KLNK 020454Z 33012G20KT 10SM CLR 19/16 A2997 RMK AO2 SLP140 T01940156

More Conditions Fewer Conditions

Pressure 29.95 in
Visibility 10.0 miles
Clouds Clear
Dew Point 64 °F
Humidity 91%
Rainfall 0.00 in
Snow Depth Not available.
UV 0 out of 12
Pollen 6.60 out of 12
Air Quality Not available.
Flu Activity Not available.
METAR KLNK 020454Z 33012G20KT 10SM CLR 19/16 A2997 RMK AO2 SLP140 T01940156

More Conditions Fewer Conditions

10-Day Weather Forecast

Almanac

Astronomy

Sep. 02, 2014 Rise Set
Actual Time 6:54 AM CDT 7:57 PM CDT
Civil Twilight 6:26 AM CDT 8:25 PM CDT
Nautical Twilight 5:52 AM CDT 8:58 PM CDT
Astronomical Twilight 5:17 AM CDT 9:33 PM CDT
Moon 2:42 PM CDT No Moon Set
Length of Visible Light 13h 58m
Length of Day
13h 02m
Tomorrow will be 2m 36s shorter.
Waxing Crescent, 47% of the Moon is Illuminated
Today
Waxing Crescent
Sep 2
First Quarter
Sep 8
Full
Sep 15
Last Quarter
Sep 24
New

Today's Extremes

State Highs State Lows

Community

WunderPhotos

Upload Photos

1,749,575 photos uploaded!

WunderBlogs® & News

Nearby

Snow Depth

Station Depth Elevation
No new snow has been reported.

Earthquake Activity

City Distance Mag. Time & Date
No recent earthquake activity has been reported nearby.
Minimum magnitude displayed is 2.5.

Coastal Water Temperatures

Place Temperature
No Stations Reporting

Nearby Weather Stations